Time;durP1;ratioP1;P1;durP2;ratioP2;P2;SDS_P1;SDS_P2;PMS_P1;PMS_P2;Temp;Humidity;BMP_temperature;BMP_pressure;BME280_temperature;BME280_humidity;BME280_pressure;Samples;Min_cycle;Max_cycle;Signal;HPM_P1;HPM_P2
2023/04/25 00:00:50;;;;;;;4.18;2.20;;;9.30;74.90;;;;;;5133358;28;20195;-68
2023/04/25 00:03:18;;;;;;;2.97;2.10;;;9.30;75.10;;;;;;5133760;28;20191;-68
2023/04/25 00:05:51;;;;;;;3.35;1.85;;;9.20;74.90;;;;;;5133385;28;20192;-68
2023/04/25 00:08:18;;;;;;;3.10;1.77;;;9.20;75.50;;;;;;5133587;28;20188;-68
2023/04/25 00:10:45;;;;;;;2.42;1.63;;;9.20;76.70;;;;;;5133155;28;20230;-68
2023/04/25 00:13:19;;;;;;;3.50;2.20;;;9.20;76.90;;;;;;5133240;28;20300;-66
2023/04/25 00:15:47;;;;;;;6.25;2.60;;;9.20;76.80;;;;;;5133137;28;20224;-68
2023/04/25 00:18:15;;;;;;;4.15;2.83;;;9.20;77.00;;;;;;5133315;28;20199;-68
2023/04/25 00:20:46;;;;;;;4.45;2.38;;;9.20;76.90;;;;;;5133325;27;20715;-68
2023/04/25 00:23:17;;;;;;;4.93;2.83;;;9.20;76.80;;;;;;5137138;27;20352;-68
2023/04/25 00:25:44;;;;;;;3.30;2.10;;;9.20;75.30;;;;;;5137014;27;20217;-68
2023/04/25 00:28:11;;;;;;;4.85;2.45;;;9.30;74.70;;;;;;5137077;27;20283;-69
2023/04/25 00:30:40;;;;;;;4.40;2.58;;;9.30;74.30;;;;;;5137030;27;20585;-68
2023/04/25 00:33:09;;;;;;;4.13;2.45;;;9.30;73.80;;;;;;5137128;27;20533;-68
2023/04/25 00:35:41;;;;;;;5.13;3.00;;;9.40;73.70;;;;;;5137038;27;20226;-68
2023/04/25 00:38:08;;;;;;;3.60;2.20;;;9.40;73.50;;;;;;5136877;27;20207;-68
2023/04/25 00:40:36;;;;;;;4.35;2.75;;;9.40;72.80;;;;;;5136926;27;20219;-69
2023/04/25 00:43:03;;;;;;;4.15;2.50;;;9.40;72.10;;;;;;5136983;27;20195;-68
2023/04/25 00:45:31;;;;;;;4.45;3.00;;;9.50;71.70;;;;;;5136713;27;20596;-68
2023/04/25 00:47:58;;;;;;;3.78;2.13;;;9.50;71.20;;;;;;5136902;27;20655;-68
2023/04/25 00:50:26;;;;;;;3.17;2.13;;;9.50;70.80;;;;;;5136788;27;20223;-68
2023/04/25 00:52:53;;;;;;;4.72;2.55;;;9.50;69.80;;;;;;5136357;27;20238;-68
2023/04/25 00:55:21;;;;;;;3.80;2.45;;;9.50;67.50;;;;;;5136304;27;20226;-68
2023/04/25 00:57:48;;;;;;;4.78;1.90;;;9.50;67.20;;;;;;5136456;27;20252;-68
2023/04/25 01:00:17;;;;;;;2.67;1.60;;;9.50;66.80;;;;;;5136332;27;20240;-68
2023/04/25 01:02:45;;;;;;;4.47;1.98;;;9.50;66.10;;;;;;5136252;27;20227;-68
2023/04/25 01:05:13;;;;;;;4.35;2.40;;;9.50;65.60;;;;;;5136035;27;20211;-68
2023/04/25 01:07:41;;;;;;;3.80;2.47;;;9.50;65.80;;;;;;5136261;27;20634;-68
2023/04/25 01:10:11;;;;;;;3.30;1.90;;;9.50;65.40;;;;;;5136105;27;20275;-68
2023/04/25 01:12:40;;;;;;;4.20;1.70;;;9.40;65.10;;;;;;5135914;27;20202;-68
2023/04/25 01:15:08;;;;;;;3.72;2.20;;;9.40;66.00;;;;;;5135781;27;20243;-68
2023/04/25 01:17:36;;;;;;;3.10;1.80;;;9.40;66.60;;;;;;5136119;27;20570;-68
2023/04/25 01:20:05;;;;;;;4.60;2.03;;;9.30;66.20;;;;;;5136154;27;20245;-68
2023/04/25 01:22:34;;;;;;;5.78;2.65;;;9.30;66.40;;;;;;5136111;27;20215;-68
2023/04/25 01:25:01;;;;;;;3.10;2.35;;;9.30;66.30;;;;;;5135942;27;20286;-69
2023/04/25 01:27:29;;;;;;;3.92;1.88;;;9.30;66.00;;;;;;5135767;27;20273;-68
2023/04/25 01:29:57;;;;;;;3.58;1.88;;;9.30;65.80;;;;;;5135672;27;20645;-68
2023/04/25 01:32:24;;;;;;;3.47;2.30;;;9.30;64.70;;;;;;5135555;27;20202;-68
2023/04/25 01:34:56;;;;;;;3.00;2.30;;;9.30;64.40;;;;;;5135282;27;20645;-68
2023/04/25 01:37:24;;;;;;;6.00;2.10;;;9.30;64.40;;;;;;5135497;27;20223;-68
2023/04/25 01:39:53;;;;;;;2.95;1.90;;;9.20;63.80;;;;;;5135793;27;20235;-68
2023/04/25 01:42:20;;;;;;;3.78;1.63;;;9.20;64.00;;;;;;5135713;27;20736;-68
2023/04/25 01:44:47;;;;;;;3.50;1.90;;;9.10;65.00;;;;;;5135289;27;20692;-68
2023/04/25 01:47:14;;;;;;;2.78;2.05;;;9.10;65.00;;;;;;5135811;27;20234;-66
2023/04/25 01:49:41;;;;;;;6.93;2.20;;;9.10;65.10;;;;;;5135248;27;20226;-68
2023/04/25 01:52:08;;;;;;;3.25;1.95;;;9.10;65.10;;;;;;5135403;27;20276;-68
2023/04/25 01:54:35;;;;;;;2.80;1.90;;;9.00;65.40;;;;;;5135035;27;20272;-68
2023/04/25 01:57:03;;;;;;;4.53;2.20;;;9.00;65.50;;;;;;5135312;27;20223;-68
2023/04/25 01:59:30;;;;;;;3.05;1.95;;;9.00;65.40;;;;;;5135588;27;20569;-68
2023/04/25 02:02:03;;;;;;;5.00;2.05;;;9.10;65.40;;;;;;5135063;27;20191;-68
2023/04/25 02:04:30;;;;;;;4.70;2.38;;;9.00;65.60;;;;;;5135426;27;20219;-68
2023/04/25 02:06:57;;;;;;;2.67;1.80;;;9.00;65.80;;;;;;5135107;27;20287;-68
2023/04/25 02:09:24;;;;;;;3.40;2.10;;;9.10;66.20;;;;;;5135250;27;20657;-69
2023/04/25 02:11:54;;;;;;;4.15;2.50;;;9.10;66.30;;;;;;5135220;27;20195;-68
2023/04/25 02:14:23;;;;;;;4.40;2.13;;;9.10;66.40;;;;;;5135363;27;20650;-68
2023/04/25 02:16:51;;;;;;;3.15;1.95;;;9.20;67.10;;;;;;5134641;27;20258;-68
2023/04/25 02:19:20;;;;;;;4.47;2.20;;;9.10;67.60;;;;;;5134924;27;20195;-68
2023/04/25 02:21:47;;;;;;;3.35;2.30;;;9.20;68.10;;;;;;5134952;27;20580;-69
2023/04/25 02:24:14;;;;;;;7.15;2.85;;;9.20;68.20;;;;;;5134611;27;20237;-69
2023/04/25 02:26:41;;;;;;;4.65;2.70;;;9.20;68.40;;;;;;5134627;27;20553;-68
2023/04/25 02:29:08;;;;;;;4.50;2.88;;;9.20;68.40;;;;;;5134889;27;20279;-68
2023/04/25 02:31:37;;;;;;;3.10;2.35;;;9.20;68.80;;;;;;5134839;27;20590;-69
2023/04/25 02:34:04;;;;;;;5.95;2.75;;;9.20;69.10;;;;;;5134531;27;20219;-68
2023/04/25 02:36:34;;;;;;;3.90;2.40;;;9.10;69.00;;;;;;5134591;27;20241;-68
2023/04/25 02:39:01;;;;;;;5.57;2.53;;;9.10;68.90;;;;;;5134413;27;20192;-68
2023/04/25 02:41:28;;;;;;;3.75;2.67;;;9.10;69.00;;;;;;5134142;27;20231;-68
2023/04/25 02:43:59;;;;;;;2.97;1.77;;;9.00;69.00;;;;;;5134409;27;20251;-69
2023/04/25 02:46:26;;;;;;;4.45;2.20;;;9.00;69.10;;;;;;5133827;27;20230;-69
2023/04/25 02:48:54;;;;;;;4.35;2.50;;;9.00;69.10;;;;;;5134322;27;20287;-68
2023/04/25 02:51:21;;;;;;;4.63;2.00;;;9.00;69.60;;;;;;5134709;27;20627;-68
2023/04/25 02:53:48;;;;;;;5.82;2.30;;;8.90;70.00;;;;;;5134124;27;20328;-68
2023/04/25 02:56:15;;;;;;;4.13;2.13;;;8.80;70.30;;;;;;5133948;27;20345;-68
2023/04/25 02:58:42;;;;;;;4.45;2.65;;;8.80;70.70;;;;;;5134291;27;20278;-68
2023/04/25 03:01:14;;;;;;;3.53;2.13;;;8.70;70.90;;;;;;5134378;27;20332;-68
2023/04/25 03:03:41;;;;;;;7.90;3.10;;;8.70;71.60;;;;;;5133998;27;20232;-67
2023/04/25 03:06:10;;;;;;;4.13;2.58;;;8.70;72.10;;;;;;5134252;27;20244;-68
2023/04/25 03:08:39;;;;;;;4.78;2.88;;;8.70;73.00;;;;;;5133885;27;20279;-68
2023/04/25 03:11:06;;;;;;;7.18;2.85;;;8.70;73.40;;;;;;5134150;27;20195;-68
2023/04/25 03:13:33;;;;;;;3.10;1.90;;;8.80;74.60;;;;;;5134048;27;20278;-68
2023/04/25 03:16:02;;;;;;;8.25;1.85;;;8.90;73.60;;;;;;5133605;27;20318;-68
2023/04/25 03:18:30;;;;;;;3.60;2.03;;;8.90;73.90;;;;;;5134129;27;20191;-68
2023/04/25 03:20:58;;;;;;;4.80;2.50;;;8.80;74.20;;;;;;5133960;27;20219;-69
2023/04/25 03:23:26;;;;;;;2.85;1.90;;;8.80;75.10;;;;;;5134204;27;20260;-68
2023/04/25 03:25:53;;;;;;;3.08;1.55;;;8.70;75.80;;;;;;5133706;27;20274;-68
2023/04/25 03:28:20;;;;;;;4.05;2.67;;;8.70;76.20;;;;;;5133689;27;20213;-68
2023/04/25 03:30:49;;;;;;;3.67;1.88;;;8.70;76.20;;;;;;5133970;27;20188;-68
2023/04/25 03:33:16;;;;;;;3.55;1.60;;;8.70;76.30;;;;;;5133508;27;20188;-68
2023/04/25 03:35:43;;;;;;;3.00;1.73;;;8.70;76.90;;;;;;5133835;27;20215;-68
2023/04/25 03:38:10;;;;;;;3.53;2.25;;;8.70;77.50;;;;;;5133769;28;20223;-68
2023/04/25 03:40:38;;;;;;;5.90;2.67;;;8.70;77.50;;;;;;5133669;28;20274;-68
2023/04/25 03:43:05;;;;;;;6.70;2.13;;;8.70;76.80;;;;;;5133922;28;20270;-68
2023/04/25 03:45:34;;;;;;;5.38;1.75;;;8.70;76.50;;;;;;5133365;28;20234;-68
2023/04/25 03:48:01;;;;;;;4.75;2.00;;;8.60;75.90;;;;;;5133747;28;20234;-68
2023/04/25 03:50:28;;;;;;;5.25;2.20;;;8.40;77.00;;;;;;5133614;28;20621;-68
2023/04/25 03:52:55;;;;;;;3.90;2.10;;;8.20;77.50;;;;;;5133955;28;20187;-68
2023/04/25 03:55:23;;;;;;;5.68;2.38;;;8.20;78.20;;;;;;5133333;27;20219;-68
2023/04/25 03:57:52;;;;;;;5.90;1.92;;;8.10;78.90;;;;;;5137125;27;20229;-68
2023/04/25 04:00:19;;;;;;;5.25;1.77;;;8.10;79.00;;;;;;5137778;27;20192;-68
2023/04/25 04:02:46;;;;;;;2.97;2.10;;;8.00;80.10;;;;;;5137589;27;20204;-68
2023/04/25 04:05:13;;;;;;;4.60;2.70;;;8.00;81.00;;;;;;5137642;27;20282;-68
2023/04/25 04:07:45;;;;;;;4.75;2.50;;;8.10;82.40;;;;;;5137457;27;20234;-68
2023/04/25 04:10:14;;;;;;;4.25;2.58;;;8.10;83.00;;;;;;5137883;27;20191;-68
2023/04/25 04:12:41;;;;;;;2.85;2.00;;;8.20;83.80;;;;;;5137626;27;20240;-68
2023/04/25 04:15:11;;;;;;;2.67;1.88;;;8.20;83.90;;;;;;5136983;27;20223;-68
2023/04/25 04:17:38;;;;;;;6.20;2.80;;;8.30;84.30;;;;;;5137737;27;20198;-68
2023/04/25 04:20:08;;;;;;;8.65;2.80;;;8.40;83.50;;;;;;5137239;27;20274;-68
2023/04/25 04:22:40;;;;;;;4.43;2.20;;;8.40;82.90;;;;;;5137205;27;20279;-68
2023/04/25 04:25:16;;;;;;;4.43;3.08;;;8.40;82.60;;;;;;5137167;27;20610;-69
2023/04/25 04:27:44;;;;;;;7.00;2.80;;;8.40;82.60;;;;;;5137153;27;20233;-68
2023/04/25 04:30:13;;;;;;;4.53;2.72;;;8.40;82.80;;;;;;5137367;27;20187;-68
2023/04/25 04:32:40;;;;;;;5.13;2.35;;;8.40;83.20;;;;;;5137365;27;20219;-68
2023/04/25 04:35:08;;;;;;;3.75;2.67;;;8.30;83.40;;;;;;5137134;27;20278;-68
2023/04/25 04:37:36;;;;;;;3.40;2.53;;;8.30;83.50;;;;;;5136676;27;20196;-68
2023/04/25 04:40:07;;;;;;;5.20;2.35;;;8.30;84.00;;;;;;5135603;27;20248;-68
2023/04/25 04:42:36;;;;;;;3.00;2.08;;;8.30;85.00;;;;;;5128143;27;20188;-68
2023/04/25 04:45:08;;;;;;;3.92;2.80;;;8.30;85.10;;;;;;5113855;27;20230;-68
2023/04/25 04:47:37;;;;;;;3.67;2.40;;;8.30;85.00;;;;;;5118312;27;20631;-68
2023/04/25 04:50:04;;;;;;;4.40;2.60;;;8.30;85.40;;;;;;5126475;27;20192;-67
2023/04/25 04:52:31;;;;;;;5.68;2.85;;;8.30;86.00;;;;;;5126787;27;20192;-67
2023/04/25 04:54:59;;;;;;;4.85;2.85;;;8.30;86.30;;;;;;5136275;27;20632;-68
2023/04/25 04:57:26;;;;;;;8.27;2.63;;;8.30;85.90;;;;;;5135141;27;20249;-67
2023/04/25 04:59:53;;;;;;;5.55;2.50;;;8.30;85.50;;;;;;5128244;27;20208;-67
2023/04/25 05:02:20;;;;;;;4.97;3.25;;;8.30;84.20;;;;;;5137345;27;20210;-67
2023/04/25 05:04:50;;;;;;;4.40;2.53;;;8.40;80.30;;;;;;5136578;27;20191;-67
2023/04/25 05:07:19;;;;;;;6.72;2.97;;;8.30;80.80;;;;;;5136353;27;20207;-67
2023/04/25 05:09:46;;;;;;;4.38;2.95;;;8.30;81.60;;;;;;5136155;27;20201;-67
2023/04/25 05:12:16;;;;;;;3.75;2.08;;;8.30;81.90;;;;;;5136631;27;20629;-67
2023/04/25 05:14:43;;;;;;;3.45;2.17;;;8.30;83.10;;;;;;5136129;27;20239;-67
2023/04/25 05:17:18;;;;;;;4.95;2.50;;;8.30;83.80;;;;;;5136004;27;20226;-67
2023/04/25 05:19:45;;;;;;;3.30;2.15;;;8.30;84.60;;;;;;5136080;27;20188;-67
2023/04/25 05:22:14;;;;;;;3.60;2.17;;;8.30;85.60;;;;;;5136240;27;20195;-67
2023/04/25 05:24:46;;;;;;;4.82;2.50;;;8.30;86.00;;;;;;5135885;27;20239;-67
2023/04/25 05:27:17;;;;;;;6.07;2.13;;;8.40;86.20;;;;;;5136102;27;20199;-67
2023/04/25 05:29:46;;;;;;;4.22;2.40;;;8.40;86.60;;;;;;5136494;27;20330;-67
2023/04/25 05:32:13;;;;;;;5.65;2.30;;;8.50;86.40;;;;;;5135993;27;20233;-67
2023/04/25 05:34:43;;;;;;;4.72;2.45;;;8.50;86.70;;;;;;5130898;27;20184;-67
2023/04/25 05:37:16;;;;;;;4.47;2.20;;;8.60;86.40;;;;;;5115583;28;20549;-68
2023/04/25 05:39:48;;;;;;;5.53;2.60;;;8.60;86.70;;;;;;5115053;28;20200;-67
2023/04/25 05:42:15;;;;;;;4.13;2.60;;;8.70;86.70;;;;;;5114848;28;20488;-67
2023/04/25 05:44:42;;;;;;;3.60;2.35;;;8.80;87.30;;;;;;5114808;28;20192;-67
2023/04/25 05:47:09;;;;;;;5.20;2.88;;;8.80;87.20;;;;;;5114706;28;20220;-67
2023/04/25 05:49:37;;;;;;;4.28;2.58;;;8.80;86.90;;;;;;5115015;28;20193;-67
2023/04/25 05:52:06;;;;;;;3.33;2.85;;;8.80;86.60;;;;;;5114922;28;20219;-67
2023/04/25 05:54:35;;;;;;;4.07;2.65;;;8.90;87.50;;;;;;5114616;28;20192;-68
2023/04/25 05:57:02;;;;;;;4.20;2.70;;;9.10;87.90;;;;;;5115016;28;20263;-67
2023/04/25 05:59:29;;;;;;;3.85;3.10;;;9.30;86.20;;;;;;5115285;28;20235;-67
2023/04/25 06:01:56;;;;;;;4.72;3.30;;;9.40;83.70;;;;;;5115109;28;20203;-67
2023/04/25 06:04:23;;;;;;;5.05;2.80;;;9.60;82.70;;;;;;5115038;28;20188;-67
2023/04/25 06:06:50;;;;;;;5.25;2.90;;;9.80;82.30;;;;;;5133861;27;20191;-68
2023/04/25 06:09:18;;;;;;;6.60;2.55;;;9.90;82.50;;;;;;5135131;27;20192;-67
2023/04/25 06:11:47;;;;;;;4.95;3.55;;;10.00;81.10;;;;;;5134626;27;20191;-67
2023/04/25 06:14:16;;;;;;;6.30;3.65;;;10.20;80.20;;;;;;5132534;27;20187;-67
2023/04/25 06:16:43;;;;;;;5.80;2.47;;;10.20;79.80;;;;;;5113797;28;20236;-68
2023/04/25 06:19:10;;;;;;;4.38;2.40;;;10.30;79.80;;;;;;5113984;28;20200;-67
2023/04/25 06:21:40;;;;;;;4.45;2.47;;;10.40;79.60;;;;;;5131020;27;20183;-67
2023/04/25 06:24:08;;;;;;;4.43;3.55;;;10.50;79.60;;;;;;5134849;27;20187;-67
2023/04/25 06:26:35;;;;;;;6.05;2.90;;;10.50;79.90;;;;;;5133954;27;20713;-67
2023/04/25 06:29:03;;;;;;;6.32;3.33;;;10.60;80.30;;;;;;5134837;27;20708;-67
2023/04/25 06:31:32;;;;;;;7.30;3.03;;;10.70;78.80;;;;;;5134547;27;20665;-68
2023/04/25 06:34:01;;;;;;;4.30;3.10;;;10.90;79.40;;;;;;5134993;27;20192;-68
2023/04/25 06:36:30;;;;;;;7.28;3.90;;;11.00;80.00;;;;;;5134917;27;20257;-67
2023/04/25 06:38:57;;;;;;;4.82;3.22;;;11.30;79.20;;;;;;5135085;27;20538;-68
2023/04/25 06:41:24;;;;;;;9.85;3.55;;;11.60;77.00;;;;;;5134519;27;20230;-68
2023/04/25 06:43:51;;;;;;;4.07;2.88;;;12.00;76.30;;;;;;5134483;27;20240;-68
2023/04/25 06:46:20;;;;;;;3.95;3.00;;;12.30;74.80;;;;;;5135009;27;20286;-67
2023/04/25 06:48:47;;;;;;;4.50;2.90;;;12.50;72.30;;;;;;5134746;27;20223;-67
2023/04/25 06:51:14;;;;;;;6.47;3.63;;;12.70;70.50;;;;;;5134840;27;20219;-68
2023/04/25 06:53:43;;;;;;;5.90;3.67;;;12.90;68.50;;;;;;5134673;27;20662;-68
2023/04/25 06:56:09;;;;;;;5.03;2.93;;;13.10;69.50;;;;;;5134321;27;20517;-68
2023/04/25 06:58:36;;;;;;;7.87;3.23;;;13.30;67.00;;;;;;5133931;27;20528;-67
2023/04/25 07:01:04;;;;;;;5.83;2.57;;;13.50;66.60;;;;;;5132964;27;20480;-68
2023/04/25 07:03:32;;;;;;;6.40;3.40;;;13.70;66.00;;;;;;5133926;27;20843;-68
2023/04/25 07:05:59;;;;;;;4.07;2.60;;;13.90;63.60;;;;;;5133957;27;20520;-68
2023/04/25 07:08:26;;;;;;;3.90;2.60;;;14.10;61.30;;;;;;5134009;27;20433;-68
2023/04/25 07:10:53;;;;;;;4.90;2.47;;;14.10;60.00;;;;;;5134238;27;20442;-68
2023/04/25 07:13:25;;;;;;;2.90;1.83;;;14.10;57.80;;;;;;5134421;27;20433;-68
2023/04/25 07:15:52;;;;;;;3.90;1.90;;;13.90;56.00;;;;;;5133817;27;20480;-68
2023/04/25 07:18:24;;;;;;;3.97;2.07;;;13.80;56.10;;;;;;5134330;27;20441;-68
2023/04/25 07:20:53;;;;;;;3.53;2.33;;;13.70;56.80;;;;;;5134086;27;20869;-67
2023/04/25 07:23:24;;;;;;;4.60;1.53;;;13.80;56.80;;;;;;5134147;27;20437;-67
2023/04/25 07:25:51;;;;;;;4.83;2.20;;;13.90;55.10;;;;;;5134232;27;20493;-68
2023/04/25 07:28:23;;;;;;;3.80;2.03;;;14.10;55.90;;;;;;5134197;27;20465;-68
2023/04/25 07:30:50;;;;;;;3.33;1.93;;;14.30;55.70;;;;;;5133904;27;20837;-68
2023/04/25 07:33:20;;;;;;;4.20;2.77;;;14.50;55.40;;;;;;5134094;27;20441;-67
2023/04/25 07:35:47;;;;;;;6.70;2.20;;;14.50;54.70;;;;;;5133591;27;21104;-68
2023/04/25 07:38:15;;;;;;;4.83;2.30;;;14.50;52.80;;;;;;5133836;27;20456;-68
2023/04/25 07:40:42;;;;;;;5.00;2.10;;;14.40;53.80;;;;;;5133641;28;20864;-68
2023/04/25 07:43:12;;;;;;;3.30;2.17;;;14.50;54.30;;;;;;5133780;28;20471;-68
2023/04/25 07:45:39;;;;;;;3.23;1.70;;;14.70;55.60;;;;;;5133824;28;20433;-68
2023/04/25 07:48:06;;;;;;;3.50;1.80;;;15.10;53.60;;;;;;5133898;28;20433;-68
2023/04/25 07:50:33;;;;;;;3.70;1.80;;;15.30;50.60;;;;;;5133939;28;20433;-68
2023/04/25 07:53:08;;;;;;;3.63;1.73;;;15.30;46.30;;;;;;5133955;28;20512;-68
2023/04/25 07:55:39;;;;;;;2.87;1.60;;;15.50;48.30;;;;;;5133887;28;20428;-68
2023/04/25 07:58:06;;;;;;;4.63;1.90;;;15.80;46.80;;;;;;5133399;28;20487;-68
2023/04/25 08:00:38;;;;;;;4.53;2.20;;;16.00;45.10;;;;;;5133466;28;20433;-68
2023/04/25 08:03:06;;;;;;;3.80;1.97;;;16.10;43.00;;;;;;5133754;28;20524;-68
2023/04/25 08:05:38;;;;;;;5.93;2.10;;;16.20;42.70;;;;;;5133453;28;20476;-68
2023/04/25 08:08:10;;;;;;;4.37;1.90;;;16.10;41.00;;;;;;5133442;28;20422;-68
2023/04/25 08:10:38;;;;;;;5.13;3.37;;;16.00;41.70;;;;;;5133564;28;20433;-68
2023/04/25 08:13:10;;;;;;;6.30;3.90;;;15.80;43.50;;;;;;5133402;28;20816;-68
2023/04/25 08:15:39;;;;;;;5.07;1.73;;;15.70;42.90;;;;;;5133168;28;20489;-68
2023/04/25 08:18:06;;;;;;;5.53;1.83;;;15.60;43.90;;;;;;5133575;28;20513;-68
2023/04/25 08:20:35;;;;;;;3.23;1.70;;;15.60;43.60;;;;;;5133608;28;20433;-68
2023/04/25 08:23:05;;;;;;;5.23;1.93;;;15.50;42.50;;;;;;5133437;28;21065;-68
2023/04/25 08:25:32;;;;;;;4.70;1.80;;;15.50;42.90;;;;;;5133042;28;20529;-68
2023/04/25 08:28:06;;;;;;;4.27;1.60;;;15.30;42.60;;;;;;5133346;28;20487;-68
2023/04/25 08:30:35;;;;;;;4.40;1.80;;;15.20;41.40;;;;;;5133508;28;20477;-68
2023/04/25 08:33:02;;;;;;;3.67;2.00;;;15.00;42.40;;;;;;5132928;28;20441;-68
2023/04/25 08:35:33;;;;;;;4.10;1.90;;;14.90;42.50;;;;;;5133164;28;20525;-68
2023/04/25 08:38:01;;;;;;;3.50;1.80;;;14.80;44.20;;;;;;5132972;28;21065;-68
2023/04/25 08:40:29;;;;;;;5.43;1.77;;;14.90;44.70;;;;;;5133069;28;20445;-68
2023/04/25 08:42:58;;;;;;;2.53;1.87;;;15.00;44.30;;;;;;5134989;27;20425;-68
2023/04/25 08:45:28;;;;;;;7.17;1.80;;;15.00;43.20;;;;;;5136497;27;20430;-68
2023/04/25 08:47:57;;;;;;;5.10;2.00;;;14.90;42.60;;;;;;5136860;27;20480;-68
2023/04/25 08:50:26;;;;;;;3.23;1.60;;;14.80;43.00;;;;;;5137083;27;20903;-68
2023/04/25 08:52:57;;;;;;;5.40;1.97;;;14.80;43.20;;;;;;5136954;27;20472;-68
2023/04/25 08:55:25;;;;;;;2.57;1.37;;;14.80;43.90;;;;;;5136570;27;20433;-68
2023/04/25 08:57:55;;;;;;;7.57;2.60;;;14.90;44.50;;;;;;5136397;27;20998;-68
2023/04/25 09:00:28;;;;;;;5.83;1.73;;;15.10;44.10;;;;;;5137115;27;20529;-68
2023/04/25 09:02:56;;;;;;;3.30;2.00;;;15.40;43.50;;;;;;5137137;27;20492;-68
2023/04/25 09:05:24;;;;;;;7.23;2.17;;;15.60;43.30;;;;;;5136430;27;20437;-67
2023/04/25 09:07:51;;;;;;;3.80;1.57;;;15.60;43.70;;;;;;5136781;27;20518;-67
2023/04/25 09:10:18;;;;;;;10.60;2.07;;;15.50;42.80;;;;;;5136426;27;20441;-68
2023/04/25 09:12:45;;;;;;;4.03;2.60;;;15.40;43.00;;;;;;5136448;27;20512;-68
2023/04/25 09:15:14;;;;;;;4.80;1.70;;;15.40;43.30;;;;;;5135810;27;20497;-68
2023/04/25 09:17:44;;;;;;;6.43;2.70;;;15.20;43.70;;;;;;5136273;27;20480;-68
2023/04/25 09:20:15;;;;;;;7.07;1.90;;;15.00;44.00;;;;;;5136290;27;20769;-68
2023/04/25 09:22:43;;;;;;;14.20;3.10;;;14.80;44.00;;;;;;5136362;27;20433;-68
2023/04/25 09:25:15;;;;;;;3.90;1.83;;;14.60;43.70;;;;;;5136504;27;20456;-68
2023/04/25 09:27:52;;;;;;;3.07;1.50;;;14.50;44.80;;;;;;5136304;27;20516;-68
2023/04/25 09:30:19;;;;;;;7.30;1.40;;;14.40;44.60;;;;;;5136060;27;20448;-68
2023/04/25 09:32:48;;;;;;;5.20;1.77;;;14.50;44.40;;;;;;5136435;27;20833;-68
2023/04/25 09:35:26;;;;;;;3.50;1.80;;;14.70;43.60;;;;;;5136348;27;20480;-68
2023/04/25 09:37:53;;;;;;;2.47;1.33;;;14.90;44.40;;;;;;5136061;27;20924;-68
2023/04/25 09:40:20;;;;;;;3.30;1.73;;;15.20;44.90;;;;;;5135966;27;20916;-68
2023/04/25 09:42:47;;;;;;;3.07;1.83;;;15.30;43.60;;;;;;5135996;27;20477;-68
2023/04/25 09:45:15;;;;;;;2.90;1.57;;;15.40;42.20;;;;;;5135925;27;20446;-68
2023/04/25 09:47:43;;;;;;;2.90;1.57;;;15.30;42.00;;;;;;5136022;27;20444;-68
2023/04/25 09:50:18;;;;;;;5.63;1.83;;;15.40;43.20;;;;;;5136016;27;20448;-68
2023/04/25 09:52:46;;;;;;;4.77;1.83;;;15.60;43.00;;;;;;5136063;27;20826;-68
2023/04/25 09:55:14;;;;;;;4.63;1.83;;;16.10;43.30;;;;;;5135113;27;20453;-68
2023/04/25 09:57:42;;;;;;;3.70;1.30;;;16.70;40.30;;;;;;5135910;27;20804;-68
2023/04/25 10:00:13;;;;;;;5.20;2.20;;;17.20;38.50;;;;;;5135199;27;20867;-68
2023/04/25 10:02:43;;;;;;;2.77;1.37;;;17.40;37.70;;;;;;5135635;27;20822;-68
2023/04/25 10:05:11;;;;;;;4.20;1.73;;;17.60;35.80;;;;;;5130856;27;20476;-68
2023/04/25 10:07:45;;;;;;;3.50;1.80;;;17.70;37.50;;;;;;5130670;27;20852;-68
2023/04/25 10:10:14;;;;;;;4.37;2.07;;;17.90;38.60;;;;;;5133150;27;20512;-68
2023/04/25 10:12:43;;;;;;;4.30;1.40;;;17.90;39.50;;;;;;5131123;27;20473;-68
2023/04/25 10:15:11;;;;;;;2.97;1.60;;;18.00;39.70;;;;;;5126678;27;20465;-68
2023/04/25 10:17:40;;;;;;;2.50;1.40;;;17.80;40.40;;;;;;5118777;27;20485;-68
2023/04/25 10:20:10;;;;;;;2.77;1.50;;;17.50;39.40;;;;;;5114497;28;20462;-68
2023/04/25 10:22:40;;;;;;;3.40;2.10;;;17.00;40.10;;;;;;5114705;28;20541;-69
2023/04/25 10:25:10;;;;;;;4.17;1.93;;;16.70;42.40;;;;;;5114607;28;20470;-68
2023/04/25 10:27:40;;;;;;;6.43;3.70;;;16.30;42.50;;;;;;5114592;28;20438;-68
2023/04/25 10:30:12;;;;;;;3.90;2.10;;;16.00;43.00;;;;;;5114841;28;20462;-68
2023/04/25 10:32:39;;;;;;;5.10;1.70;;;15.60;42.50;;;;;;5114540;28;20927;-68
2023/04/25 10:35:17;;;;;;;6.33;2.13;;;15.20;44.40;;;;;;5114318;28;20434;-68
2023/04/25 10:38:05;;;;;;;6.40;1.57;;;14.60;47.10;;;;;;5114145;28;20485;-68
2023/04/25 10:40:34;;;;;;;5.60;3.00;;;13.90;49.80;;;;;;5114466;28;20481;-68
2023/04/25 10:43:36;;;;;;;3.33;2.00;;;13.40;50.70;;;;;;5113741;28;20445;-68
2023/04/25 10:46:03;;;;;;;3.73;1.70;;;13.00;52.70;;;;;;5114166;28;20848;-68
2023/04/25 10:48:31;;;;;;;3.43;1.60;;;12.70;54.60;;;;;;5114221;28;20434;-67
2023/04/25 10:51:11;;;;;;;5.90;2.20;;;12.50;56.10;;;;;;5113909;28;20484;-68
2023/04/25 10:53:38;;;;;;;3.87;2.27;;;12.40;57.80;;;;;;5113631;28;20958;-68
2023/04/25 10:56:12;;;;;;;6.30;1.88;;;12.30;58.50;;;;;;5113891;28;20445;-68
2023/04/25 10:58:44;;;;;;;4.00;2.10;;;12.20;59.30;;;;;;5114180;28;20216;-67
2023/04/25 11:01:11;;;;;;;3.00;1.83;;;12.20;61.50;;;;;;5113968;28;20187;-68
2023/04/25 11:03:43;;;;;;;6.00;1.92;;;12.20;61.80;;;;;;5113553;28;20658;-67
2023/04/25 11:06:23;;;;;;;5.53;2.60;;;12.20;63.10;;;;;;5113062;28;20192;-68
2023/04/25 11:08:51;;;;;;;3.60;2.30;;;12.30;63.10;;;;;;5114014;28;20279;-68
2023/04/25 11:11:24;;;;;;;4.65;2.40;;;12.20;63.00;;;;;;5113446;28;20477;-68
2023/04/25 11:13:51;;;;;;;3.50;1.60;;;12.30;64.10;;;;;;5113881;28;20573;-68
2023/04/25 11:16:19;;;;;;;3.75;1.80;;;12.40;64.10;;;;;;5113617;28;20252;-68
2023/04/25 11:18:46;;;;;;;2.80;1.80;;;12.50;64.00;;;;;;5113650;28;20220;-68
2023/04/25 11:21:14;;;;;;;6.20;1.73;;;12.60;65.60;;;;;;5113909;28;20840;-68
2023/04/25 11:23:41;;;;;;;2.70;1.67;;;13.00;64.80;;;;;;5113310;28;21007;-68
2023/04/25 11:26:09;;;;;;;2.60;1.57;;;13.40;64.70;;;;;;5113719;28;20852;-68
2023/04/25 11:28:37;;;;;;;2.40;1.57;;;13.70;62.20;;;;;;5113633;28;20474;-68
2023/04/25 11:31:05;;;;;;;3.60;1.50;;;13.80;61.50;;;;;;5113688;28;20856;-68
2023/04/25 11:33:32;;;;;;;2.47;1.40;;;13.70;57.20;;;;;;5113610;28;20519;-68
2023/04/25 11:36:00;;;;;;;2.33;1.40;;;13.60;57.60;;;;;;5113429;28;20513;-68
2023/04/25 11:38:27;;;;;;;3.00;1.30;;;13.50;59.40;;;;;;5113290;28;20482;-69
2023/04/25 11:40:54;;;;;;;5.57;2.10;;;13.50;60.40;;;;;;5113484;28;20473;-68
2023/04/25 11:43:22;;;;;;;5.33;1.90;;;13.50;62.00;;;;;;5113476;28;20438;-68
2023/04/25 11:45:52;;;;;;;3.33;1.67;;;13.50;61.70;;;;;;5113333;28;20557;-68
2023/04/25 11:48:24;;;;;;;4.10;1.60;;;13.50;61.90;;;;;;5113252;28;20520;-68
2023/04/25 11:50:52;;;;;;;2.87;2.00;;;13.50;63.30;;;;;;5112910;28;20519;-68
2023/04/25 11:53:19;;;;;;;3.00;1.53;;;13.50;63.20;;;;;;5112906;28;20533;-68
2023/04/25 11:55:46;;;;;;;2.30;1.23;;;13.50;61.70;;;;;;5113137;28;20466;-68
2023/04/25 11:58:15;;;;;;;2.40;1.90;;;13.70;62.10;;;;;;5113282;28;20489;-68
2023/04/25 12:00:43;;;;;;;2.70;1.57;;;13.70;61.30;;;;;;5113661;28;20426;-68
2023/04/25 12:03:11;;;;;;;2.63;1.80;;;13.80;63.30;;;;;;5113041;28;20504;-68
2023/04/25 12:05:39;;;;;;;2.83;1.60;;;13.90;64.70;;;;;;5113404;28;20984;-68
2023/04/25 12:08:14;;;;;;;6.73;1.20;;;14.00;62.80;;;;;;5113359;28;20473;-68
2023/04/25 12:10:44;;;;;;;2.23;0.90;;;14.20;64.10;;;;;;5112702;28;20433;-68
2023/04/25 12:13:25;;;;;;;4.27;1.10;;;14.40;61.90;;;;;;5113368;28;20471;-68
2023/04/25 12:15:52;;;;;;;2.20;1.30;;;14.30;61.00;;;;;;5112799;28;20484;-68
2023/04/25 12:18:24;;;;;;;2.30;1.30;;;14.10;61.50;;;;;;5115729;28;20567;-68
2023/04/25 12:20:51;;;;;;;2.10;1.00;;;13.70;61.60;;;;;;5117033;28;20427;-68
2023/04/25 12:23:18;;;;;;;1.80;0.90;;;13.50;60.60;;;;;;5116978;28;20470;-68
2023/04/25 12:25:46;;;;;;;1.73;0.70;;;13.20;60.10;;;;;;5116914;28;20473;-68
2023/04/25 12:28:19;;;;;;;2.07;1.00;;;13.20;61.10;;;;;;5116844;28;20548;-68
2023/04/25 12:30:57;;;;;;;2.43;1.53;;;13.30;61.50;;;;;;5116637;28;20438;-68
2023/04/25 12:33:27;;;;;;;1.80;0.87;;;13.80;60.80;;;;;;5116967;28;20538;-68
2023/04/25 12:35:54;;;;;;;1.60;0.90;;;14.30;60.80;;;;;;5116699;28;20521;-68
2023/04/25 12:38:25;;;;;;;1.87;0.93;;;14.70;61.00;;;;;;5116666;28;20521;-68
2023/04/25 12:40:54;;;;;;;2.43;0.77;;;15.00;60.30;;;;;;5117052;28;20438;-68
2023/04/25 12:43:21;;;;;;;1.83;0.57;;;15.10;58.70;;;;;;5116520;28;20472;-68
2023/04/25 12:45:50;;;;;;;1.73;0.60;;;14.90;57.10;;;;;;5116771;28;20499;-68
2023/04/25 12:48:17;;;;;;;2.00;1.00;;;14.70;57.10;;;;;;5116670;28;21388;-68
2023/04/25 12:50:48;;;;;;;1.70;0.80;;;14.40;57.20;;;;;;5116468;28;20558;-68
2023/04/25 12:53:15;;;;;;;1.60;0.70;;;14.30;58.20;;;;;;5116470;28;20945;-68
2023/04/25 12:55:42;;;;;;;1.70;0.70;;;14.40;60.20;;;;;;5115659;28;20947;-68
2023/04/25 12:58:10;;;;;;;1.50;0.50;;;14.40;59.80;;;;;;5116150;28;20531;-68